createdAt,value
2023-02-02T00:01:17.677Z,75.65049993343908
2023-02-02T00:04:19.176Z,75.98251408485017
2023-02-02T00:07:17.135Z,75.93946332963509
2023-02-02T00:11:17.854Z,76.35276452932136
2023-02-02T00:14:17.516Z,76.28023099718938
2023-02-02T00:17:16.992Z,76.76171743784751
2023-02-02T00:21:16.633Z,76.66755126209284
2023-02-02T00:24:19.437Z,76.87935702474982
2023-02-02T00:27:17.277Z,76.6303844657739
2023-02-02T00:31:17.126Z,76.46296291940628
2023-02-02T00:34:18.713Z,76.49571532909134
2023-02-02T00:37:17.510Z,76.98070065689794
2023-02-02T00:41:17.112Z,76.94359287392405
2023-02-02T00:45:22.731Z,76.96774309695932
2023-02-02T00:47:18.390Z,76.69173998465942
2023-02-02T00:51:16.342Z,76.45838123284496
2023-02-02T00:54:16.921Z,75.9892640064989
2023-02-02T00:57:16.913Z,75.91864373507264
2023-02-02T01:01:16.969Z,75.67091163984497
2023-02-02T01:04:16.742Z,75.66218167644702
2023-02-02T01:07:16.617Z,75.17451511146767
2023-02-02T01:11:17.083Z,75.50571141707171
2023-02-02T01:14:16.777Z,75.79713791270653
2023-02-02T01:17:16.701Z,75.84615651669735
2023-02-02T01:21:17.401Z,75.6119987480186
2023-02-02T01:24:17.427Z,75.48008154230303
2023-02-02T01:27:17.825Z,75.6700699802488
2023-02-02T01:31:18.643Z,75.41637098553298
2023-02-02T01:34:16.845Z,75.51608495597678
2023-02-02T01:37:16.838Z,75.31710280773727
2023-02-02T01:41:19.847Z,75.63008618967251
2023-02-02T01:45:27.287Z,75.88152354360678
2023-02-02T01:47:18.563Z,76.12860657457013
2023-02-02T01:51:20.519Z,76.50798818940127
2023-02-02T01:54:22.077Z,76.85070894051644
2023-02-02T01:57:24.202Z,76.74548040958445
2023-02-02T02:01:17.090Z,76.84325220444437
2023-02-02T02:04:17.910Z,76.79953073189404
2023-02-02T02:07:17.421Z,76.72176896766152
2023-02-02T02:11:16.838Z,76.76209249043406
2023-02-02T02:32:04.277Z,76.68694841854698
2023-02-02T02:34:22.641Z,75.9042267724334
2023-02-02T02:37:26.370Z,75.7999743370455
2023-02-02T02:41:20.687Z,75.5563278107023
2023-02-02T02:44:19.350Z,75.47216999973801
2023-02-02T02:47:18.713Z,75.65205533855175
2023-02-02T02:51:43.587Z,75.47846907517754
2023-02-02T02:54:23.629Z,75.18584919357122
2023-02-02T02:57:33.510Z,76.25546484615751
2023-02-02T03:01:24.188Z,76.48234760888914
2023-02-02T03:04:26.985Z,76.37194875280369
2023-02-02T03:07:23.115Z,76.28767209314724
2023-02-02T03:11:17.110Z,76.14422689955549
2023-02-02T03:14:17.113Z,76.67232419971913
2023-02-02T03:17:17.000Z,77.02291415858062
2023-02-02T03:21:16.830Z,76.99342995250478
2023-02-02T03:24:17.122Z,77.43842928925295
2023-02-02T03:27:16.954Z,77.35722888559832
2023-02-02T03:31:17.043Z,77.20102928331058
2023-02-02T03:34:16.773Z,77.05527791679911
2023-02-02T03:37:16.774Z,76.8966632449834
2023-02-02T03:41:16.167Z,76.37890388769497
2023-02-02T03:44:16.536Z,76.70328781706858
2023-02-02T03:47:16.679Z,76.61736590671073
2023-02-02T03:51:16.191Z,76.56980235608566
2023-02-02T03:54:16.496Z,76.34256864418157
2023-02-02T03:57:17.005Z,76.317619212773
2023-02-02T04:01:16.402Z,76.51954760683682
2023-02-02T04:04:16.644Z,76.6219918214702
2023-02-02T04:07:16.733Z,76.61217108303885
2023-02-02T04:11:16.831Z,76.60486581558276
2023-02-02T04:14:16.808Z,77.18929963376927
2023-02-02T04:17:16.875Z,77.60752302710605
2023-02-02T04:21:16.888Z,77.11349194517987
2023-02-02T04:24:17.385Z,76.77455833004403
2023-02-02T04:27:17.116Z,76.74430347831421
2023-02-02T04:31:16.380Z,76.38896233920579
2023-02-02T04:34:16.819Z,76.06365955962296
2023-02-02T04:37:16.958Z,76.06945899643517
2023-02-02T04:41:17.397Z,76.19966829995322
2023-02-02T04:44:17.289Z,76.71331615423777
2023-02-02T04:47:17.202Z,76.46771720994954
2023-02-02T04:51:16.366Z,76.8342933076048
2023-02-02T04:54:16.576Z,76.89217642647009
2023-02-02T04:57:18.097Z,76.73737218799947
2023-02-02T05:01:18.386Z,76.3817082384432
2023-02-02T05:04:16.732Z,76.29520977129171
2023-02-02T05:07:16.669Z,76.22937978610317
2023-02-02T05:11:18.738Z,76.75198856100644
2023-02-02T05:14:18.968Z,76.95626060456304
2023-02-02T05:17:17.445Z,76.90027215824746
2023-02-02T05:21:16.284Z,77.09023543396682
2023-02-02T05:24:16.719Z,77.16038791514255
2023-02-02T05:27:16.682Z,77.1171288513822
2023-02-02T05:31:17.953Z,77.32543123628113
2023-02-02T05:34:16.936Z,77.45339049951383
2023-02-02T05:37:17.734Z,77.41324025129231
2023-02-02T05:41:16.673Z,77.1171024907218
2023-02-02T05:44:16.796Z,77.20665900490377
2023-02-02T05:47:17.348Z,77.509951859221
2023-02-02T05:51:21.216Z,77.9750670592909
2023-02-02T05:54:21.435Z,78.09582953813495
2023-02-02T05:57:18.280Z,78.72651376422638
2023-02-02T06:01:18.294Z,79.0186521837467
2023-02-02T06:04:17.456Z,79.00285933460944
2023-02-02T06:07:17.299Z,79.23364931421594
2023-02-02T06:11:17.603Z,79.35084607793303
2023-02-02T06:14:16.644Z,79.56432364235329
2023-02-02T06:17:16.566Z,79.93873857740626
2023-02-02T06:21:17.104Z,79.70434026841616
2023-02-02T06:24:17.396Z,79.90183869341962
2023-02-02T06:27:17.127Z,79.52960894307967
2023-02-02T06:31:20.713Z,79.5012704337118
2023-02-02T06:34:16.752Z,79.84420623896432
2023-02-02T06:37:16.640Z,79.66200771196245
2023-02-02T06:41:16.930Z,80.0173766848151
2023-02-02T06:44:17.271Z,79.842870779703
2023-02-02T06:47:17.171Z,79.13168441982053
2023-02-02T06:51:16.709Z,79.21477069456567
2023-02-02T06:54:16.967Z,79.2730277389659
2023-02-02T06:57:16.830Z,79.62606105067829
2023-02-02T07:01:17.619Z,79.62679360050672
2023-02-02T07:04:17.265Z,79.8446631063043
2023-02-02T07:07:17.044Z,79.59758670821049
2023-02-02T07:11:17.281Z,79.99516625521905
2023-02-02T07:14:16.968Z,80.29146658615042
2023-02-02T07:17:16.956Z,80.06482703393867
2023-02-02T07:21:18.604Z,80.42577134890772
2023-02-02T07:24:16.672Z,81.20247246323548
2023-02-02T07:27:16.741Z,81.16060129310178
2023-02-02T07:31:20.015Z,80.95011623867047
2023-02-02T07:34:17.309Z,80.55145979900479
2023-02-02T07:37:17.327Z,80.42994798687445
2023-02-02T07:41:17.117Z,80.29956661854597
2023-02-02T07:44:17.304Z,80.6249015195311
2023-02-02T07:47:17.606Z,80.53917282380891
2023-02-02T07:51:17.489Z,80.75701015770069
2023-02-02T07:54:17.316Z,80.99152449762394
2023-02-02T07:57:17.797Z,81.4546138839669
2023-02-02T08:01:16.906Z,82.20624533926761
2023-02-02T08:04:17.619Z,82.24750860737723
2023-02-02T08:07:17.437Z,82.62458908931771
2023-02-02T08:11:18.217Z,82.79876526374962
2023-02-02T08:14:16.343Z,83.3421052760126
2023-02-02T08:17:16.381Z,83.30156504896895
2023-02-02T08:21:17.323Z,82.70036210738674
2023-02-02T08:24:16.692Z,82.57487263644009
2023-02-02T08:27:16.704Z,82.58737258411601
2023-02-02T08:31:18.651Z,82.70368322863294
2023-02-02T08:34:16.749Z,82.80329307868098
2023-02-02T08:37:16.384Z,82.84548138168694
2023-02-02T08:41:19.988Z,82.27531492420113
2023-02-02T08:44:17.090Z,81.42335779801613
2023-02-02T08:47:17.271Z,80.68746500679305
2023-02-02T08:51:18.926Z,79.99402516976632
2023-02-02T08:54:17.243Z,79.6537382993755
2023-02-02T08:57:17.574Z,79.18701061910413
2023-02-02T09:01:19.264Z,80.49919720802541
2023-02-02T09:04:17.350Z,80.1893226624976
2023-02-02T09:07:18.032Z,79.32832856017131
2023-02-02T09:11:18.596Z,80.50812577021684
2023-02-02T09:14:16.784Z,79.84446473200418
2023-02-02T09:17:16.558Z,78.93071245643257
2023-02-02T09:21:17.981Z,77.86074731780556
2023-02-02T09:24:16.822Z,77.32506738836929
2023-02-02T09:27:16.396Z,76.84158395709885
2023-02-02T09:31:16.912Z,75.97521809188696
2023-02-02T09:34:16.974Z,75.48683416407688
2023-02-02T09:37:16.772Z,74.84313702179026
2023-02-02T09:42:37.759Z,74.47189720876187
2023-02-02T09:44:24.738Z,73.5986964480907
2023-02-02T09:47:19.445Z,72.52076959353623
2023-02-02T09:51:19.924Z,72.81870318210711
2023-02-02T09:54:20.380Z,72.52554290494795
2023-02-02T09:57:20.241Z,72.59507826093494
2023-02-02T10:01:21.195Z,71.56431917387286
2023-02-02T10:04:25.230Z,71.57804117050529
2023-02-02T10:07:23.856Z,71.21430147762496
2023-02-02T10:11:27.349Z,70.97996936439358
2023-02-02T10:14:23.494Z,70.38603656162451
2023-02-02T10:17:36.543Z,70.8194236875876
2023-02-02T10:21:28.399Z,69.39080491809113
2023-02-02T10:24:19.094Z,69.7845342158839
2023-02-02T10:27:27.761Z,69.13357634275498
2023-02-02T10:31:26.531Z,67.0182528784174
2023-02-02T10:34:25.127Z,66.60340942738428
2023-02-02T10:37:26.088Z,65.98979267169098
2023-02-02T10:41:26.501Z,65.06605609569014
2023-02-02T10:44:24.695Z,65.55379088059314
2023-02-02T10:47:23.616Z,63.61741134972658
2023-02-02T10:51:22.887Z,63.42455052317545
2023-02-02T10:54:33.373Z,61.55443923426341
2023-02-02T10:57:26.420Z,60.723482490387504
2023-02-02T11:01:18.596Z,60.914045635209106
2023-02-02T11:11:40.857Z,57.96267677077896
2023-02-02T11:14:46.135Z,57.2486246732724
2023-02-02T11:17:37.146Z,56.238683424856696
2023-02-02T11:21:22.347Z,56.24788380983231
2023-02-02T11:24:23.467Z,54.598903236469276
2023-02-02T11:27:20.025Z,53.690515787826
2023-02-02T11:31:32.291Z,54.102986421735146
2023-02-02T11:34:20.780Z,52.18244757536611
2023-02-02T11:37:21.271Z,51.74612601187222
2023-02-02T11:41:17.493Z,51.982206167465826
2023-02-02T11:44:25.135Z,52.71482408509859
2023-02-02T11:47:21.370Z,51.4147577593484
2023-02-02T11:51:23.200Z,52.75499806586628
2023-02-02T11:54:23.117Z,53.03318745249189
2023-02-02T11:57:19.566Z,52.140164825732
2023-02-02T12:01:24.303Z,51.02415921273405
2023-02-02T12:04:24.546Z,52.19198377318922
2023-02-02T12:07:22.001Z,51.16599284586498
2023-02-02T12:11:32.624Z,50.69830925076142
2023-02-02T12:14:29.863Z,50.42266605170833
2023-02-02T12:17:29.358Z,49.71532753212928
2023-02-02T12:21:24.544Z,49.701547265040844
2023-02-02T12:24:28.395Z,49.413544522513675
2023-02-02T12:27:25.290Z,48.033162344200214
2023-02-02T12:31:24.290Z,48.798510450819236
2023-02-02T12:34:27.111Z,49.40895024310021
2023-02-02T12:37:30.955Z,48.9501893787202
2023-02-02T12:41:31.230Z,48.963765879114575
2023-02-02T12:44:25.409Z,48.144831170517435
2023-02-02T12:47:24.318Z,49.43375947184793
2023-02-02T12:51:33.118Z,49.384858608384036
2023-02-02T12:54:46.409Z,48.29840836016805
2023-02-02T12:57:28.724Z,48.46549620857155
2023-02-02T13:01:29.248Z,48.09270886577407
2023-02-02T13:04:31.430Z,49.15918701087823
2023-02-02T13:07:34.571Z,48.01571988962226
2023-02-02T13:11:41.435Z,46.707385370422735
2023-02-02T13:14:22.575Z,47.17141348178081
2023-02-02T13:17:23.268Z,47.74926856333402
2023-02-02T13:21:22.412Z,47.648065632134696
2023-02-02T13:24:26.110Z,46.84402707827598
2023-02-02T13:27:20.461Z,46.27938137545071
2023-02-02T13:31:22.765Z,45.07221372938493
2023-02-02T13:34:22.111Z,44.9297731227254
2023-02-02T13:37:25.005Z,44.11169934314972
2023-02-02T13:41:19.593Z,44.34757471166751
2023-02-02T13:44:25.193Z,44.05535877186095
2023-02-02T13:47:23.312Z,44.114474049195216
2023-02-02T13:51:40.183Z,44.726273820032006
2023-02-02T14:01:18.988Z,44.132781170472676
2023-02-02T14:04:23.186Z,44.52264298479136
2023-02-02T14:07:27.313Z,43.87042844080219
2023-02-02T14:11:25.627Z,43.21854742943517
2023-02-02T14:14:38.084Z,42.233747176263755
2023-02-02T14:17:52.508Z,42.914859284961906
2023-02-02T14:22:00.433Z,43.53933842964717
2023-02-02T14:24:42.015Z,43.61393761364139
2023-02-02T14:28:10.259Z,42.657643751131864
2023-02-02T14:31:28.365Z,42.84674279236449
2023-02-02T14:34:34.712Z,43.35100808558746
2023-02-02T14:37:41.952Z,43.3104504248837
2023-02-02T14:43:50.711Z,42.37166074223553
2023-02-02T14:44:17.691Z,42.48620546939814
2023-02-02T14:48:00.640Z,42.10787819190205
2023-02-02T14:51:19.669Z,42.30837696370802
2023-02-02T14:54:22.997Z,42.97220989142911
2023-02-02T14:57:26.214Z,42.06256707725693
2023-02-02T15:01:24.856Z,41.84503300350785
2023-02-02T15:04:25.629Z,42.37677203616551
2023-02-02T15:08:25.158Z,42.141981709529105
2023-02-02T15:12:15.763Z,41.73532806956447
2023-02-02T15:14:21.351Z,41.723517574966344
2023-02-02T15:17:24.055Z,41.282460737509865
2023-02-02T15:21:21.419Z,40.95593521888121
2023-02-02T15:24:23.196Z,41.01881142885383
2023-02-02T15:27:22.024Z,40.858205998613094
2023-02-02T15:31:27.198Z,40.94385231809507
2023-02-02T15:34:22.761Z,41.10344121887263
2023-02-02T15:37:21.930Z,41.0630447416262
2023-02-02T15:41:21.940Z,40.776632927714886
2023-02-02T15:44:19.614Z,41.23314781245245
2023-02-02T15:47:19.665Z,40.95906062028825
2023-02-02T15:51:17.419Z,41.05549208747511
2023-02-02T15:54:23.978Z,41.60808481009942
2023-02-02T15:57:29.084Z,42.326189090301504
2023-02-02T16:01:19.068Z,42.063237324961776
2023-02-02T16:04:21.632Z,42.193265093140546
2023-02-02T16:07:20.915Z,42.0158154135583
2023-02-02T16:11:19.445Z,42.396524742455135
2023-02-02T16:14:18.938Z,42.67983572628422
2023-02-02T16:17:21.973Z,43.503870698638615
2023-02-02T16:21:23.825Z,43.93455755737312
2023-02-02T16:24:23.248Z,44.796964110477525
2023-02-02T16:27:20.735Z,45.628617097598536
2023-02-02T16:31:17.513Z,45.80294916109052
2023-02-02T16:34:41.667Z,46.18564663106029
2023-02-02T16:37:21.861Z,46.188963563739236
2023-02-02T16:41:26.929Z,46.640390226640875
2023-02-02T16:44:49.863Z,46.97131295776623
2023-02-02T16:47:51.493Z,47.0716500359393
2023-02-02T16:51:26.708Z,47.59388008498578
2023-02-02T16:54:19.848Z,47.79955692174867
2023-02-02T16:57:20.881Z,48.00700448410905
2023-02-02T17:01:16.937Z,48.33788442830534
2023-02-02T17:04:20.693Z,48.9493246291993
2023-02-02T17:07:17.288Z,49.211962796537364
2023-02-02T17:11:22.372Z,49.35586862185437
2023-02-02T17:14:19.865Z,49.9613482941393
2023-02-02T17:17:16.614Z,49.87498963569476
2023-02-02T17:21:20.361Z,49.96705503543916
2023-02-02T17:24:16.959Z,50.263462841711714
2023-02-02T17:27:25.506Z,50.50835767782641
2023-02-02T17:31:16.781Z,51.09434467416519
2023-02-02T17:34:16.984Z,51.03712349511703
2023-02-02T17:37:16.780Z,51.27477360727263
2023-02-02T17:41:17.124Z,51.32405179246122
2023-02-02T17:44:17.594Z,51.376828234381826
2023-02-02T17:47:17.364Z,51.68237632718336
2023-02-02T17:51:17.246Z,51.546166317449064
2023-02-02T17:54:17.395Z,51.93591450353065
2023-02-02T17:57:17.171Z,52.07346425601837
2023-02-02T18:01:17.720Z,52.53065404512524
2023-02-02T18:04:17.234Z,52.64082114256536
2023-02-02T18:07:19.008Z,52.762422132076196
2023-02-02T18:11:19.494Z,53.172806412318515
2023-02-02T18:14:16.743Z,53.42288320776594
2023-02-02T18:17:16.713Z,53.74005557623528
2023-02-02T18:21:17.244Z,54.15505779986949
2023-02-02T18:24:19.380Z,54.494658808848236
2023-02-02T18:27:19.547Z,54.71294180286618
2023-02-02T18:31:19.557Z,54.64763296578913
2023-02-02T18:34:17.066Z,55.3704180229897
2023-02-02T18:37:17.014Z,55.58144013486852
2023-02-02T18:41:18.161Z,55.64876916451878
2023-02-02T18:44:19.861Z,56.01378994314104
2023-02-02T18:47:18.400Z,55.57003672397282
2023-02-02T18:51:18.295Z,55.6792750648551
2023-02-02T18:54:17.897Z,56.04637908872376
2023-02-02T18:57:17.932Z,56.37425410051332
2023-02-02T19:01:18.121Z,56.45541294659047
2023-02-02T19:04:17.255Z,56.788682705833466
2023-02-02T19:08:22.602Z,57.02708453337714
2023-02-02T19:11:19.162Z,57.53796070962198
2023-02-02T19:14:20.063Z,57.92409724784011
2023-02-02T19:17:21.308Z,58.11104778920442
2023-02-02T19:21:16.895Z,58.644120259729725
2023-02-02T19:24:17.040Z,58.22606894138071
2023-02-02T19:27:20.070Z,58.06687608838188
2023-02-02T19:31:17.677Z,58.46654503859086
2023-02-02T19:34:20.868Z,59.104203642664096
2023-02-02T19:37:23.194Z,59.45046066099264
2023-02-02T19:41:18.979Z,60.14158494497472
2023-02-02T19:44:19.458Z,60.13439941023501
2023-02-02T19:47:27.145Z,60.15740835140179
2023-02-02T19:51:35.464Z,60.49914684204737
2023-02-02T19:54:28.701Z,60.44628139217537
2023-02-02T19:57:20.321Z,60.58862669947496
2023-02-02T20:01:20.434Z,60.8919626979955
2023-02-02T20:04:18.934Z,61.29581107978361
2023-02-02T20:07:17.341Z,61.80130598895656
2023-02-02T20:11:28.396Z,61.77102131739873
2023-02-02T20:14:27.733Z,61.62589573133592
2023-02-02T20:17:25.441Z,61.68732074258861
2023-02-02T20:21:26.771Z,61.129687551739735
2023-02-02T20:24:21.520Z,61.62609154356334
2023-02-02T20:27:20.944Z,61.80332395556756
2023-02-02T20:31:18.770Z,62.18627503589232
2023-02-02T20:34:22.250Z,62.641854468113436
2023-02-02T20:37:22.653Z,62.93350512653357
2023-02-02T20:41:36.741Z,63.06592055199573
2023-02-02T20:44:18.249Z,63.41652197992514
2023-02-02T20:47:30.299Z,63.17209388077032
2023-02-02T20:51:32.631Z,62.6901868675978
2023-02-02T20:54:20.513Z,62.96260601825259
2023-02-02T20:57:20.541Z,63.13915171437386
2023-02-02T21:01:17.326Z,63.61640656392796
2023-02-02T21:04:19.546Z,64.51348975077137
2023-02-02T21:07:20.930Z,64.91783645840873
2023-02-02T21:11:15.556Z,64.49552894527827
2023-02-02T21:14:16.010Z,65.28461590054098
2023-02-02T21:17:16.257Z,65.6088755663172
2023-02-02T21:21:17.889Z,65.74419061191847
2023-02-02T21:24:17.468Z,65.9800947369904
2023-02-02T21:27:16.693Z,66.3278975221275
2023-02-02T21:31:17.016Z,65.99573852602136
2023-02-02T21:34:17.416Z,66.79290824000573
2023-02-02T21:37:17.201Z,66.76388490868655
2023-02-02T21:41:15.929Z,66.5429198893561
2023-02-02T21:44:19.177Z,66.14824985509837
2023-02-02T21:47:25.757Z,66.18158529981056
2023-02-02T21:51:21.797Z,66.59697943461431
2023-02-02T21:54:21.982Z,66.40848711969329
2023-02-02T21:57:19.063Z,66.68562228797889
2023-02-02T22:01:21.281Z,66.88330474565669
2023-02-02T22:04:22.691Z,67.64282291713083
2023-02-02T22:07:16.331Z,67.76438712199828
2023-02-02T22:11:22.645Z,67.72878755479049
2023-02-02T22:14:21.235Z,67.77065685516237
2023-02-02T22:17:21.510Z,67.87603640554951
2023-02-02T22:21:16.529Z,68.62919042274419
2023-02-02T22:24:16.112Z,69.02653851098738
2023-02-02T22:27:19.749Z,69.18631430131713
2023-02-02T22:31:16.312Z,69.27006050144816
2023-02-02T22:34:16.618Z,69.82370732676554
2023-02-02T22:37:16.675Z,69.83790628566983
2023-02-02T22:41:16.413Z,69.80121580896328
2023-02-02T22:44:16.648Z,69.93249705686489
2023-02-02T22:47:16.651Z,70.14424054482451
2023-02-02T22:51:15.893Z,70.37880312350981
2023-02-02T22:54:16.192Z,70.71077822833851
2023-02-02T22:57:16.174Z,70.56761715268534
2023-02-02T23:01:16.627Z,70.715117426459
2023-02-02T23:04:16.062Z,70.73687771423833
2023-02-02T23:07:16.185Z,71.24174838174551
2023-02-02T23:11:16.040Z,71.77453459488159
2023-02-02T23:14:16.272Z,72.33000006119941
2023-02-02T23:17:16.241Z,72.38913397311592
2023-02-02T23:21:17.046Z,72.03476528892473
2023-02-02T23:24:16.141Z,72.04643627359665
2023-02-02T23:27:16.085Z,72.22521426148504
2023-02-02T23:31:15.870Z,73.02845584479287
2023-02-02T23:34:15.967Z,73.55530833568947
2023-02-02T23:37:15.987Z,74.03808870268644
2023-02-02T23:41:16.390Z,74.33046687561625
2023-02-02T23:44:16.743Z,74.42811207585933
2023-02-02T23:47:17.249Z,74.53188273366386
2023-02-02T23:51:16.204Z,74.62251351369265
2023-02-02T23:54:16.491Z,75.6893219266714
2023-02-02T23:57:16.469Z,75.37447921523152
